sensor_id;sensor_type;location;lat;lon;timestamp;P1;durP1;ratioP1;P2;durP2;ratioP2
13463;SDS011;6804;48.774;9.174;2022-08-25T00:02:03;3.00;;;2.70;;
13463;SDS011;6804;48.774;9.174;2022-08-25T00:04:33;3.75;;;2.20;;
13463;SDS011;6804;48.774;9.174;2022-08-25T00:07:01;5.47;;;3.47;;
13463;SDS011;6804;48.774;9.174;2022-08-25T00:09:30;3.47;;;2.67;;
13463;SDS011;6804;48.774;9.174;2022-08-25T00:12:02;3.20;;;2.22;;
13463;SDS011;6804;48.774;9.174;2022-08-25T00:14:32;3.17;;;2.75;;
13463;SDS011;6804;48.774;9.174;2022-08-25T00:17:04;2.97;;;2.67;;
13463;SDS011;6804;48.774;9.174;2022-08-25T00:19:33;3.08;;;2.55;;
13463;SDS011;6804;48.774;9.174;2022-08-25T00:22:04;3.92;;;2.70;;
13463;SDS011;6804;48.774;9.174;2022-08-25T00:24:32;3.33;;;2.60;;
13463;SDS011;6804;48.774;9.174;2022-08-25T00:27:00;2.80;;;2.53;;
13463;SDS011;6804;48.774;9.174;2022-08-25T00:29:28;2.60;;;2.40;;
13463;SDS011;6804;48.774;9.174;2022-08-25T00:32:06;2.63;;;2.40;;
13463;SDS011;6804;48.774;9.174;2022-08-25T00:34:36;2.95;;;2.65;;
13463;SDS011;6804;48.774;9.174;2022-08-25T00:37:05;8.68;;;2.88;;
13463;SDS011;6804;48.774;9.174;2022-08-25T00:39:38;2.50;;;2.30;;
13463;SDS011;6804;48.774;9.174;2022-08-25T00:42:06;2.78;;;2.58;;
13463;SDS011;6804;48.774;9.174;2022-08-25T00:44:34;3.10;;;2.35;;
13463;SDS011;6804;48.774;9.174;2022-08-25T00:47:05;3.08;;;2.78;;
13463;SDS011;6804;48.774;9.174;2022-08-25T00:49:35;2.95;;;2.70;;
13463;SDS011;6804;48.774;9.174;2022-08-25T00:52:06;3.20;;;2.72;;
13463;SDS011;6804;48.774;9.174;2022-08-25T00:54:39;3.35;;;2.80;;
13463;SDS011;6804;48.774;9.174;2022-08-25T00:57:11;2.83;;;2.63;;
13463;SDS011;6804;48.774;9.174;2022-08-25T00:59:41;3.88;;;2.42;;
13463;SDS011;6804;48.774;9.174;2022-08-25T01:02:12;5.20;;;2.85;;
13463;SDS011;6804;48.774;9.174;2022-08-25T01:04:45;2.70;;;2.50;;
13463;SDS011;6804;48.774;9.174;2022-08-25T01:07:16;2.85;;;2.55;;
13463;SDS011;6804;48.774;9.174;2022-08-25T01:09:46;3.33;;;2.65;;
13463;SDS011;6804;48.774;9.174;2022-08-25T01:12:15;3.20;;;2.55;;
13463;SDS011;6804;48.774;9.174;2022-08-25T01:14:46;3.65;;;2.60;;
13463;SDS011;6804;48.774;9.174;2022-08-25T01:17:18;3.35;;;2.45;;
13463;SDS011;6804;48.774;9.174;2022-08-25T01:19:46;2.70;;;2.50;;
13463;SDS011;6804;48.774;9.174;2022-08-25T01:22:15;3.15;;;2.38;;
13463;SDS011;6804;48.774;9.174;2022-08-25T01:24:46;2.73;;;2.53;;
13463;SDS011;6804;48.774;9.174;2022-08-25T01:27:20;4.15;;;2.78;;
13463;SDS011;6804;48.774;9.174;2022-08-25T01:29:47;2.95;;;2.60;;
13463;SDS011;6804;48.774;9.174;2022-08-25T01:32:15;2.85;;;2.55;;
13463;SDS011;6804;48.774;9.174;2022-08-25T01:34:43;2.60;;;2.40;;
13463;SDS011;6804;48.774;9.174;2022-08-25T01:37:17;2.83;;;2.25;;
13463;SDS011;6804;48.774;9.174;2022-08-25T01:39:45;2.88;;;2.67;;
13463;SDS011;6804;48.774;9.174;2022-08-25T01:42:22;3.07;;;2.77;;
13463;SDS011;6804;48.774;9.174;2022-08-25T01:45:03;3.10;;;2.80;;
13463;SDS011;6804;48.774;9.174;2022-08-25T01:47:35;3.23;;;2.60;;
13463;SDS011;6804;48.774;9.174;2022-08-25T01:50:09;2.92;;;2.50;;
13463;SDS011;6804;48.774;9.174;2022-08-25T01:52:50;3.00;;;2.70;;
13463;SDS011;6804;48.774;9.174;2022-08-25T01:55:21;3.73;;;2.60;;
13463;SDS011;6804;48.774;9.174;2022-08-25T01:57:50;2.93;;;2.60;;
13463;SDS011;6804;48.774;9.174;2022-08-25T02:00:20;3.23;;;2.90;;
13463;SDS011;6804;48.774;9.174;2022-08-25T02:02:48;4.17;;;2.83;;
13463;SDS011;6804;48.774;9.174;2022-08-25T02:05:16;4.05;;;3.03;;
13463;SDS011;6804;48.774;9.174;2022-08-25T02:07:45;3.20;;;2.87;;
13463;SDS011;6804;48.774;9.174;2022-08-25T02:10:13;2.95;;;2.65;;
13463;SDS011;6804;48.774;9.174;2022-08-25T02:12:43;3.60;;;3.13;;
13463;SDS011;6804;48.774;9.174;2022-08-25T02:15:11;2.60;;;2.40;;
13463;SDS011;6804;48.774;9.174;2022-08-25T02:17:38;4.28;;;2.97;;
13463;SDS011;6804;48.774;9.174;2022-08-25T02:20:09;2.87;;;2.67;;
13463;SDS011;6804;48.774;9.174;2022-08-25T02:22:36;3.90;;;3.10;;
13463;SDS011;6804;48.774;9.174;2022-08-25T02:25:09;4.00;;;2.80;;
13463;SDS011;6804;48.774;9.174;2022-08-25T02:27:36;3.10;;;2.80;;
13463;SDS011;6804;48.774;9.174;2022-08-25T02:30:04;3.07;;;2.77;;
13463;SDS011;6804;48.774;9.174;2022-08-25T02:32:35;3.00;;;2.80;;
13463;SDS011;6804;48.774;9.174;2022-08-25T02:35:04;3.30;;;2.63;;
13463;SDS011;6804;48.774;9.174;2022-08-25T02:37:32;2.90;;;2.70;;
13463;SDS011;6804;48.774;9.174;2022-08-25T02:39:59;3.42;;;2.60;;
13463;SDS011;6804;48.774;9.174;2022-08-25T02:42:31;3.77;;;3.17;;
13463;SDS011;6804;48.774;9.174;2022-08-25T02:44:58;4.20;;;3.53;;
13463;SDS011;6804;48.774;9.174;2022-08-25T02:47:29;3.30;;;3.00;;
13463;SDS011;6804;48.774;9.174;2022-08-25T02:49:57;4.63;;;3.10;;
13463;SDS011;6804;48.774;9.174;2022-08-25T02:52:24;3.47;;;3.17;;
13463;SDS011;6804;48.774;9.174;2022-08-25T02:54:51;3.73;;;3.40;;
13463;SDS011;6804;48.774;9.174;2022-08-25T02:57:19;3.33;;;3.03;;
13463;SDS011;6804;48.774;9.174;2022-08-25T02:59:48;4.43;;;2.90;;
13463;SDS011;6804;48.774;9.174;2022-08-25T03:02:15;3.90;;;2.83;;
13463;SDS011;6804;48.774;9.174;2022-08-25T03:04:43;3.53;;;3.03;;
13463;SDS011;6804;48.774;9.174;2022-08-25T03:07:11;3.17;;;2.83;;
13463;SDS011;6804;48.774;9.174;2022-08-25T03:09:39;3.50;;;3.20;;
13463;SDS011;6804;48.774;9.174;2022-08-25T03:12:07;4.70;;;3.17;;
13463;SDS011;6804;48.774;9.174;2022-08-25T03:14:35;3.73;;;3.10;;
13463;SDS011;6804;48.774;9.174;2022-08-25T03:17:10;4.47;;;3.73;;
13463;SDS011;6804;48.774;9.174;2022-08-25T03:19:40;3.27;;;2.97;;
13463;SDS011;6804;48.774;9.174;2022-08-25T03:22:08;6.37;;;3.50;;
13463;SDS011;6804;48.774;9.174;2022-08-25T03:24:35;4.77;;;3.47;;
13463;SDS011;6804;48.774;9.174;2022-08-25T03:27:03;3.50;;;3.20;;
13463;SDS011;6804;48.774;9.174;2022-08-25T03:29:30;3.40;;;3.10;;
13463;SDS011;6804;48.774;9.174;2022-08-25T03:31:59;3.67;;;3.37;;
13463;SDS011;6804;48.774;9.174;2022-08-25T03:34:28;3.27;;;3.03;;
13463;SDS011;6804;48.774;9.174;2022-08-25T03:36:59;3.70;;;3.30;;
13463;SDS011;6804;48.774;9.174;2022-08-25T03:39:33;3.70;;;3.40;;
13463;SDS011;6804;48.774;9.174;2022-08-25T03:42:01;5.80;;;3.83;;
13463;SDS011;6804;48.774;9.174;2022-08-25T03:44:32;3.83;;;3.43;;
13463;SDS011;6804;48.774;9.174;2022-08-25T03:47:02;4.27;;;3.13;;
13463;SDS011;6804;48.774;9.174;2022-08-25T03:49:31;3.43;;;3.13;;
13463;SDS011;6804;48.774;9.174;2022-08-25T03:51:58;4.23;;;3.37;;
13463;SDS011;6804;48.774;9.174;2022-08-25T03:54:26;3.83;;;3.50;;
13463;SDS011;6804;48.774;9.174;2022-08-25T03:56:54;3.73;;;3.33;;
13463;SDS011;6804;48.774;9.174;2022-08-25T03:59:24;3.90;;;3.33;;
13463;SDS011;6804;48.774;9.174;2022-08-25T04:01:54;3.63;;;3.30;;
13463;SDS011;6804;48.774;9.174;2022-08-25T04:04:22;3.40;;;3.10;;
13463;SDS011;6804;48.774;9.174;2022-08-25T04:06:51;3.20;;;2.90;;
13463;SDS011;6804;48.774;9.174;2022-08-25T04:09:18;5.23;;;3.77;;
13463;SDS011;6804;48.774;9.174;2022-08-25T04:11:46;3.50;;;3.20;;
13463;SDS011;6804;48.774;9.174;2022-08-25T04:14:16;3.40;;;3.10;;
13463;SDS011;6804;48.774;9.174;2022-08-25T04:16:44;3.40;;;3.03;;
13463;SDS011;6804;48.774;9.174;2022-08-25T04:19:14;3.60;;;3.10;;
13463;SDS011;6804;48.774;9.174;2022-08-25T04:21:44;3.40;;;3.20;;
13463;SDS011;6804;48.774;9.174;2022-08-25T04:24:16;4.07;;;3.37;;
13463;SDS011;6804;48.774;9.174;2022-08-25T04:26:46;3.47;;;3.17;;
13463;SDS011;6804;48.774;9.174;2022-08-25T04:29:15;3.73;;;3.40;;
13463;SDS011;6804;48.774;9.174;2022-08-25T04:31:47;3.90;;;3.47;;
13463;SDS011;6804;48.774;9.174;2022-08-25T04:34:17;3.73;;;3.43;;
13463;SDS011;6804;48.774;9.174;2022-08-25T04:36:47;4.17;;;3.50;;
13463;SDS011;6804;48.774;9.174;2022-08-25T04:39:20;5.67;;;3.80;;
13463;SDS011;6804;48.774;9.174;2022-08-25T04:41:48;6.97;;;3.67;;
13463;SDS011;6804;48.774;9.174;2022-08-25T04:44:19;4.30;;;3.50;;
13463;SDS011;6804;48.774;9.174;2022-08-25T04:46:51;3.93;;;3.60;;
13463;SDS011;6804;48.774;9.174;2022-08-25T04:49:21;3.70;;;3.40;;
13463;SDS011;6804;48.774;9.174;2022-08-25T04:51:49;5.47;;;3.40;;
13463;SDS011;6804;48.774;9.174;2022-08-25T04:54:24;5.47;;;3.67;;
13463;SDS011;6804;48.774;9.174;2022-08-25T04:56:55;3.70;;;3.37;;
13463;SDS011;6804;48.774;9.174;2022-08-25T04:59:23;3.73;;;3.43;;
13463;SDS011;6804;48.774;9.174;2022-08-25T05:01:50;4.60;;;4.20;;
13463;SDS011;6804;48.774;9.174;2022-08-25T05:04:21;5.43;;;3.80;;
13463;SDS011;6804;48.774;9.174;2022-08-25T05:06:49;5.00;;;3.90;;
13463;SDS011;6804;48.774;9.174;2022-08-25T05:09:17;5.73;;;4.10;;
13463;SDS011;6804;48.774;9.174;2022-08-25T05:11:48;3.90;;;3.60;;
13463;SDS011;6804;48.774;9.174;2022-08-25T05:14:17;4.50;;;3.80;;
13463;SDS011;6804;48.774;9.174;2022-08-25T05:16:46;4.83;;;3.70;;
13463;SDS011;6804;48.774;9.174;2022-08-25T05:19:14;5.87;;;3.63;;
13463;SDS011;6804;48.774;9.174;2022-08-25T05:21:42;4.97;;;3.60;;
13463;SDS011;6804;48.774;9.174;2022-08-25T05:24:14;3.73;;;3.40;;
13463;SDS011;6804;48.774;9.174;2022-08-25T05:26:42;3.73;;;3.27;;
13463;SDS011;6804;48.774;9.174;2022-08-25T05:29:12;4.43;;;4.03;;
13463;SDS011;6804;48.774;9.174;2022-08-25T05:31:39;3.92;;;3.53;;
13463;SDS011;6804;48.774;9.174;2022-08-25T05:34:08;4.80;;;4.10;;
13463;SDS011;6804;48.774;9.174;2022-08-25T05:36:36;4.20;;;3.80;;
13463;SDS011;6804;48.774;9.174;2022-08-25T05:39:07;5.10;;;3.70;;
13463;SDS011;6804;48.774;9.174;2022-08-25T05:41:36;4.15;;;3.78;;
13463;SDS011;6804;48.774;9.174;2022-08-25T05:44:06;4.95;;;3.90;;
13463;SDS011;6804;48.774;9.174;2022-08-25T05:46:38;4.78;;;3.75;;
13463;SDS011;6804;48.774;9.174;2022-08-25T05:49:05;4.13;;;3.72;;
13463;SDS011;6804;48.774;9.174;2022-08-25T05:51:33;4.28;;;3.80;;
13463;SDS011;6804;48.774;9.174;2022-08-25T05:54:03;4.25;;;3.70;;
13463;SDS011;6804;48.774;9.174;2022-08-25T05:56:31;5.53;;;3.67;;
13463;SDS011;6804;48.774;9.174;2022-08-25T05:58:59;5.43;;;4.22;;
13463;SDS011;6804;48.774;9.174;2022-08-25T06:01:28;5.82;;;4.47;;
13463;SDS011;6804;48.774;9.174;2022-08-25T06:04:14;5.10;;;4.30;;
13463;SDS011;6804;48.774;9.174;2022-08-25T06:06:42;4.72;;;4.10;;
13463;SDS011;6804;48.774;9.174;2022-08-25T06:09:09;4.97;;;4.55;;
13463;SDS011;6804;48.774;9.174;2022-08-25T06:11:37;4.80;;;4.40;;
13463;SDS011;6804;48.774;9.174;2022-08-25T06:14:06;5.65;;;4.70;;
13463;SDS011;6804;48.774;9.174;2022-08-25T06:16:34;7.40;;;4.68;;
13463;SDS011;6804;48.774;9.174;2022-08-25T06:19:06;5.50;;;5.00;;
13463;SDS011;6804;48.774;9.174;2022-08-25T06:21:36;9.38;;;4.88;;
13463;SDS011;6804;48.774;9.174;2022-08-25T06:24:05;6.13;;;4.97;;
13463;SDS011;6804;48.774;9.174;2022-08-25T06:26:34;5.78;;;5.15;;
13463;SDS011;6804;48.774;9.174;2022-08-25T06:29:04;7.55;;;5.22;;
13463;SDS011;6804;48.774;9.174;2022-08-25T06:31:32;5.60;;;5.10;;
13463;SDS011;6804;48.774;9.174;2022-08-25T06:34:00;9.15;;;5.45;;
13463;SDS011;6804;48.774;9.174;2022-08-25T06:36:27;9.10;;;5.68;;
13463;SDS011;6804;48.774;9.174;2022-08-25T06:38:56;7.43;;;5.50;;
13463;SDS011;6804;48.774;9.174;2022-08-25T06:41:23;6.55;;;5.80;;
13463;SDS011;6804;48.774;9.174;2022-08-25T06:43:51;6.80;;;5.63;;
13463;SDS011;6804;48.774;9.174;2022-08-25T06:46:26;8.75;;;5.95;;
13463;SDS011;6804;48.774;9.174;2022-08-25T06:48:55;6.63;;;5.85;;
13463;SDS011;6804;48.774;9.174;2022-08-25T06:51:26;9.13;;;5.55;;
13463;SDS011;6804;48.774;9.174;2022-08-25T06:53:58;9.02;;;5.65;;
13463;SDS011;6804;48.774;9.174;2022-08-25T06:56:26;7.85;;;5.30;;
13463;SDS011;6804;48.774;9.174;2022-08-25T06:58:58;6.25;;;5.65;;
13463;SDS011;6804;48.774;9.174;2022-08-25T07:01:26;6.03;;;5.38;;
13463;SDS011;6804;48.774;9.174;2022-08-25T07:03:55;7.32;;;5.70;;
13463;SDS011;6804;48.774;9.174;2022-08-25T07:06:28;6.50;;;5.35;;
13463;SDS011;6804;48.774;9.174;2022-08-25T07:08:58;6.60;;;5.65;;
13463;SDS011;6804;48.774;9.174;2022-08-25T07:11:25;5.90;;;5.20;;
13463;SDS011;6804;48.774;9.174;2022-08-25T07:13:58;8.00;;;5.75;;
13463;SDS011;6804;48.774;9.174;2022-08-25T07:16:26;6.82;;;6.13;;
13463;SDS011;6804;48.774;9.174;2022-08-25T07:18:56;6.25;;;5.63;;
13463;SDS011;6804;48.774;9.174;2022-08-25T07:21:28;8.77;;;5.70;;
13463;SDS011;6804;48.774;9.174;2022-08-25T07:23:58;9.52;;;5.15;;
13463;SDS011;6804;48.774;9.174;2022-08-25T07:26:30;6.80;;;5.57;;
13463;SDS011;6804;48.774;9.174;2022-08-25T07:28:59;7.65;;;5.20;;
13463;SDS011;6804;48.774;9.174;2022-08-25T07:31:27;7.50;;;5.57;;
13463;SDS011;6804;48.774;9.174;2022-08-25T07:33:58;6.18;;;5.32;;
13463;SDS011;6804;48.774;9.174;2022-08-25T07:36:43;5.32;;;4.75;;
13463;SDS011;6804;48.774;9.174;2022-08-25T07:39:22;7.63;;;5.50;;
13463;SDS011;6804;48.774;9.174;2022-08-25T07:41:50;8.23;;;6.25;;
13463;SDS011;6804;48.774;9.174;2022-08-25T07:44:18;6.55;;;5.28;;
13463;SDS011;6804;48.774;9.174;2022-08-25T07:46:47;12.27;;;6.63;;
13463;SDS011;6804;48.774;9.174;2022-08-25T07:49:17;5.53;;;5.03;;
13463;SDS011;6804;48.774;9.174;2022-08-25T07:51:46;6.18;;;5.20;;
13463;SDS011;6804;48.774;9.174;2022-08-25T07:54:21;7.45;;;5.45;;
13463;SDS011;6804;48.774;9.174;2022-08-25T07:56:51;6.18;;;5.57;;
13463;SDS011;6804;48.774;9.174;2022-08-25T07:59:20;8.05;;;5.50;;
13463;SDS011;6804;48.774;9.174;2022-08-25T08:01:48;7.10;;;6.28;;
13463;SDS011;6804;48.774;9.174;2022-08-25T08:04:15;7.78;;;5.68;;
13463;SDS011;6804;48.774;9.174;2022-08-25T08:06:49;6.97;;;5.47;;
13463;SDS011;6804;48.774;9.174;2022-08-25T08:09:22;6.00;;;5.50;;
13463;SDS011;6804;48.774;9.174;2022-08-25T08:11:55;5.68;;;4.90;;
13463;SDS011;6804;48.774;9.174;2022-08-25T08:14:22;6.85;;;5.20;;
13463;SDS011;6804;48.774;9.174;2022-08-25T08:16:50;5.65;;;5.15;;
13463;SDS011;6804;48.774;9.174;2022-08-25T08:19:18;7.32;;;6.20;;
13463;SDS011;6804;48.774;9.174;2022-08-25T08:21:48;5.80;;;5.30;;
13463;SDS011;6804;48.774;9.174;2022-08-25T08:24:19;5.72;;;5.13;;
13463;SDS011;6804;48.774;9.174;2022-08-25T08:26:48;6.20;;;5.10;;
13463;SDS011;6804;48.774;9.174;2022-08-25T08:29:16;6.47;;;5.13;;
13463;SDS011;6804;48.774;9.174;2022-08-25T08:32:00;5.65;;;4.80;;
13463;SDS011;6804;48.774;9.174;2022-08-25T08:34:31;6.25;;;5.18;;
13463;SDS011;6804;48.774;9.174;2022-08-25T08:36:59;5.55;;;5.05;;
13463;SDS011;6804;48.774;9.174;2022-08-25T08:39:28;5.70;;;5.10;;
13463;SDS011;6804;48.774;9.174;2022-08-25T08:42:10;6.20;;;4.93;;
13463;SDS011;6804;48.774;9.174;2022-08-25T08:45:00;5.22;;;4.70;;
13463;SDS011;6804;48.774;9.174;2022-08-25T08:47:54;5.57;;;5.07;;
13463;SDS011;6804;48.774;9.174;2022-08-25T08:50:42;5.97;;;5.40;;
13463;SDS011;6804;48.774;9.174;2022-08-25T08:53:21;6.03;;;5.43;;
13463;SDS011;6804;48.774;9.174;2022-08-25T08:55:56;5.68;;;5.13;;
13463;SDS011;6804;48.774;9.174;2022-08-25T08:58:34;5.15;;;4.43;;
13463;SDS011;6804;48.774;9.174;2022-08-25T09:01:09;5.75;;;5.30;;
13463;SDS011;6804;48.774;9.174;2022-08-25T09:03:46;6.03;;;5.05;;
13463;SDS011;6804;48.774;9.174;2022-08-25T09:06:23;5.43;;;4.95;;
13463;SDS011;6804;48.774;9.174;2022-08-25T09:08:58;6.28;;;5.38;;
13463;SDS011;6804;48.774;9.174;2022-08-25T09:11:31;7.60;;;5.07;;
13463;SDS011;6804;48.774;9.174;2022-08-25T09:14:17;7.80;;;5.05;;
13463;SDS011;6804;48.774;9.174;2022-08-25T09:17:05;5.40;;;4.90;;
13463;SDS011;6804;48.774;9.174;2022-08-25T09:22:56;5.22;;;4.72;;
13463;SDS011;6804;48.774;9.174;2022-08-25T09:25:36;5.18;;;4.53;;
13463;SDS011;6804;48.774;9.174;2022-08-25T09:28:12;5.35;;;4.50;;
13463;SDS011;6804;48.774;9.174;2022-08-25T09:30:52;5.43;;;4.93;;
13463;SDS011;6804;48.774;9.174;2022-08-25T09:33:26;6.05;;;5.03;;
13463;SDS011;6804;48.774;9.174;2022-08-25T09:35:56;5.57;;;4.90;;
13463;SDS011;6804;48.774;9.174;2022-08-25T09:38:25;5.85;;;5.22;;
13463;SDS011;6804;48.774;9.174;2022-08-25T09:40:53;5.97;;;4.70;;
13463;SDS011;6804;48.774;9.174;2022-08-25T09:43:24;6.78;;;6.07;;
13463;SDS011;6804;48.774;9.174;2022-08-25T09:46:05;7.03;;;5.50;;
13463;SDS011;6804;48.774;9.174;2022-08-25T09:48:42;5.38;;;4.88;;
13463;SDS011;6804;48.774;9.174;2022-08-25T09:51:14;5.35;;;4.85;;
13463;SDS011;6804;48.774;9.174;2022-08-25T09:53:46;4.82;;;4.38;;
13463;SDS011;6804;48.774;9.174;2022-08-25T09:56:23;5.32;;;4.78;;
13463;SDS011;6804;48.774;9.174;2022-08-25T09:58:53;5.60;;;4.85;;
13463;SDS011;6804;48.774;9.174;2022-08-25T10:01:26;5.65;;;5.15;;
13463;SDS011;6804;48.774;9.174;2022-08-25T10:03:58;5.38;;;4.88;;
13463;SDS011;6804;48.774;9.174;2022-08-25T10:06:29;5.43;;;4.88;;
13463;SDS011;6804;48.774;9.174;2022-08-25T10:09:03;4.65;;;4.25;;
13463;SDS011;6804;48.774;9.174;2022-08-25T10:11:36;5.00;;;4.50;;
13463;SDS011;6804;48.774;9.174;2022-08-25T10:14:14;5.18;;;4.55;;
13463;SDS011;6804;48.774;9.174;2022-08-25T10:17:10;5.20;;;4.70;;
13463;SDS011;6804;48.774;9.174;2022-08-25T10:19:43;4.72;;;4.28;;
13463;SDS011;6804;48.774;9.174;2022-08-25T10:22:11;5.10;;;4.57;;
13463;SDS011;6804;48.774;9.174;2022-08-25T10:24:56;4.72;;;4.32;;
13463;SDS011;6804;48.774;9.174;2022-08-25T10:27:29;4.50;;;4.10;;
13463;SDS011;6804;48.774;9.174;2022-08-25T10:30:06;4.07;;;3.67;;
13463;SDS011;6804;48.774;9.174;2022-08-25T10:35:50;4.93;;;4.40;;
13463;SDS011;6804;48.774;9.174;2022-08-25T10:38:28;4.60;;;4.20;;
13463;SDS011;6804;48.774;9.174;2022-08-25T10:41:05;5.10;;;4.40;;
13463;SDS011;6804;48.774;9.174;2022-08-25T10:43:53;4.75;;;3.80;;
13463;SDS011;6804;48.774;9.174;2022-08-25T10:46:32;4.72;;;4.32;;
13463;SDS011;6804;48.774;9.174;2022-08-25T10:49:11;4.72;;;4.32;;
13463;SDS011;6804;48.774;9.174;2022-08-25T10:51:49;4.18;;;3.63;;
13463;SDS011;6804;48.774;9.174;2022-08-25T10:54:34;3.88;;;3.55;;
13463;SDS011;6804;48.774;9.174;2022-08-25T10:57:13;5.28;;;4.22;;
13463;SDS011;6804;48.774;9.174;2022-08-25T10:59:55;4.18;;;3.83;;
13463;SDS011;6804;48.774;9.174;2022-08-25T11:02:33;4.82;;;3.80;;
13463;SDS011;6804;48.774;9.174;2022-08-25T11:05:27;4.47;;;4.13;;
13463;SDS011;6804;48.774;9.174;2022-08-25T11:08:05;4.22;;;3.83;;
13463;SDS011;6804;48.774;9.174;2022-08-25T11:10:39;5.55;;;4.03;;
13463;SDS011;6804;48.774;9.174;2022-08-25T11:13:15;4.28;;;3.90;;
13463;SDS011;6804;48.774;9.174;2022-08-25T11:15:50;3.95;;;3.65;;
13463;SDS011;6804;48.774;9.174;2022-08-25T11:18:20;5.00;;;4.50;;
13463;SDS011;6804;48.774;9.174;2022-08-25T11:20:54;4.15;;;3.85;;
13463;SDS011;6804;48.774;9.174;2022-08-25T11:23:27;4.07;;;3.65;;
13463;SDS011;6804;48.774;9.174;2022-08-25T11:26:00;3.40;;;3.10;;
13463;SDS011;6804;48.774;9.174;2022-08-25T11:28:38;3.60;;;3.30;;
13463;SDS011;6804;48.774;9.174;2022-08-25T11:31:20;4.20;;;3.80;;
13463;SDS011;6804;48.774;9.174;2022-08-25T11:33:59;4.20;;;3.65;;
13463;SDS011;6804;48.774;9.174;2022-08-25T11:36:33;4.28;;;3.88;;
13463;SDS011;6804;48.774;9.174;2022-08-25T11:39:09;3.55;;;3.25;;
13463;SDS011;6804;48.774;9.174;2022-08-25T11:41:46;3.75;;;3.45;;
13463;SDS011;6804;48.774;9.174;2022-08-25T11:44:30;3.58;;;3.10;;
13463;SDS011;6804;48.774;9.174;2022-08-25T11:47:30;3.80;;;3.08;;
13463;SDS011;6804;48.774;9.174;2022-08-25T11:50:23;3.20;;;2.90;;
13463;SDS011;6804;48.774;9.174;2022-08-25T11:52:59;2.90;;;2.70;;
13463;SDS011;6804;48.774;9.174;2022-08-25T11:55:46;3.20;;;2.90;;
13463;SDS011;6804;48.774;9.174;2022-08-25T11:58:31;3.30;;;3.00;;
13463;SDS011;6804;48.774;9.174;2022-08-25T12:04:30;2.33;;;2.13;;
13463;SDS011;6804;48.774;9.174;2022-08-25T12:07:23;3.80;;;2.97;;
13463;SDS011;6804;48.774;9.174;2022-08-25T12:10:14;3.47;;;3.17;;
13463;SDS011;6804;48.774;9.174;2022-08-25T12:15:56;3.40;;;3.10;;
13463;SDS011;6804;48.774;9.174;2022-08-25T12:18:43;3.90;;;2.60;;
13463;SDS011;6804;48.774;9.174;2022-08-25T12:21:27;3.63;;;2.88;;
13463;SDS011;6804;48.774;9.174;2022-08-25T12:27:00;3.40;;;3.10;;
13463;SDS011;6804;48.774;9.174;2022-08-25T12:29:39;4.03;;;3.63;;
13463;SDS011;6804;48.774;9.174;2022-08-25T12:37:57;3.30;;;3.00;;
13463;SDS011;6804;48.774;9.174;2022-08-25T12:40:28;2.80;;;2.50;;
13463;SDS011;6804;48.774;9.174;2022-08-25T12:43:07;4.13;;;3.00;;
13463;SDS011;6804;48.774;9.174;2022-08-25T12:45:41;4.70;;;3.38;;
13463;SDS011;6804;48.774;9.174;2022-08-25T12:51:24;3.45;;;2.97;;
13463;SDS011;6804;48.774;9.174;2022-08-25T12:53:56;3.00;;;2.70;;
13463;SDS011;6804;48.774;9.174;2022-08-25T12:56:39;2.95;;;2.75;;
13463;SDS011;6804;48.774;9.174;2022-08-25T12:59:14;3.28;;;2.90;;
13463;SDS011;6804;48.774;9.174;2022-08-25T13:02:06;4.15;;;2.88;;
13463;SDS011;6804;48.774;9.174;2022-08-25T13:04:56;3.10;;;2.75;;
13463;SDS011;6804;48.774;9.174;2022-08-25T13:07:37;3.83;;;2.88;;
13463;SDS011;6804;48.774;9.174;2022-08-25T13:10:31;2.50;;;2.30;;
13463;SDS011;6804;48.774;9.174;2022-08-25T13:13:20;2.80;;;2.58;;
13463;SDS011;6804;48.774;9.174;2022-08-25T13:16:08;3.78;;;3.47;;
13463;SDS011;6804;48.774;9.174;2022-08-25T13:18:44;3.45;;;3.13;;
13463;SDS011;6804;48.774;9.174;2022-08-25T13:21:14;4.72;;;3.00;;
13463;SDS011;6804;48.774;9.174;2022-08-25T13:23:44;3.05;;;2.72;;
13463;SDS011;6804;48.774;9.174;2022-08-25T13:26:20;3.72;;;2.75;;
13463;SDS011;6804;48.774;9.174;2022-08-25T13:28:50;3.60;;;2.90;;
13463;SDS011;6804;48.774;9.174;2022-08-25T13:31:28;2.80;;;2.53;;
13463;SDS011;6804;48.774;9.174;2022-08-25T13:33:57;3.70;;;3.40;;
13463;SDS011;6804;48.774;9.174;2022-08-25T13:36:31;4.90;;;3.08;;
13463;SDS011;6804;48.774;9.174;2022-08-25T13:39:25;3.00;;;2.70;;
13463;SDS011;6804;48.774;9.174;2022-08-25T13:41:55;2.67;;;2.47;;
13463;SDS011;6804;48.774;9.174;2022-08-25T13:44:26;2.70;;;2.50;;
13463;SDS011;6804;48.774;9.174;2022-08-25T13:47:06;6.53;;;3.55;;
13463;SDS011;6804;48.774;9.174;2022-08-25T13:49:40;2.70;;;2.38;;
13463;SDS011;6804;48.774;9.174;2022-08-25T13:52:14;3.15;;;2.85;;
13463;SDS011;6804;48.774;9.174;2022-08-25T13:54:59;2.97;;;2.75;;
13463;SDS011;6804;48.774;9.174;2022-08-25T13:57:28;3.35;;;2.90;;
13463;SDS011;6804;48.774;9.174;2022-08-25T14:00:02;3.03;;;2.72;;
13463;SDS011;6804;48.774;9.174;2022-08-25T14:02:43;3.03;;;2.72;;
13463;SDS011;6804;48.774;9.174;2022-08-25T14:05:27;6.03;;;3.00;;
13463;SDS011;6804;48.774;9.174;2022-08-25T14:07:57;2.60;;;2.38;;
13463;SDS011;6804;48.774;9.174;2022-08-25T14:10:33;4.15;;;2.95;;
13463;SDS011;6804;48.774;9.174;2022-08-25T14:13:13;2.65;;;2.45;;
13463;SDS011;6804;48.774;9.174;2022-08-25T14:16:05;2.50;;;2.30;;
13463;SDS011;6804;48.774;9.174;2022-08-25T14:18:49;2.92;;;2.70;;
13463;SDS011;6804;48.774;9.174;2022-08-25T14:21:22;2.50;;;2.30;;
13463;SDS011;6804;48.774;9.174;2022-08-25T14:23:59;3.00;;;2.78;;
13463;SDS011;6804;48.774;9.174;2022-08-25T14:26:30;3.35;;;3.05;;
13463;SDS011;6804;48.774;9.174;2022-08-25T14:28:58;3.03;;;2.72;;
13463;SDS011;6804;48.774;9.174;2022-08-25T14:31:27;2.83;;;2.50;;
13463;SDS011;6804;48.774;9.174;2022-08-25T14:34:00;3.40;;;2.60;;
13463;SDS011;6804;48.774;9.174;2022-08-25T14:36:30;2.80;;;2.60;;
13463;SDS011;6804;48.774;9.174;2022-08-25T14:39:00;2.63;;;2.42;;
13463;SDS011;6804;48.774;9.174;2022-08-25T14:41:33;3.13;;;2.83;;
13463;SDS011;6804;48.774;9.174;2022-08-25T14:44:03;3.80;;;2.80;;
13463;SDS011;6804;48.774;9.174;2022-08-25T14:46:33;2.70;;;2.50;;
13463;SDS011;6804;48.774;9.174;2022-08-25T14:49:05;2.63;;;2.42;;
13463;SDS011;6804;48.774;9.174;2022-08-25T14:51:37;2.40;;;2.20;;
13463;SDS011;6804;48.774;9.174;2022-08-25T14:54:10;2.45;;;2.25;;
13463;SDS011;6804;48.774;9.174;2022-08-25T14:56:39;2.83;;;2.58;;
13463;SDS011;6804;48.774;9.174;2022-08-25T14:59:10;2.50;;;2.30;;
13463;SDS011;6804;48.774;9.174;2022-08-25T15:01:38;3.00;;;2.70;;
13463;SDS011;6804;48.774;9.174;2022-08-25T15:04:09;3.10;;;2.80;;
13463;SDS011;6804;48.774;9.174;2022-08-25T15:06:40;2.47;;;2.28;;
13463;SDS011;6804;48.774;9.174;2022-08-25T15:09:10;2.60;;;2.40;;
13463;SDS011;6804;48.774;9.174;2022-08-25T15:11:41;3.00;;;2.70;;
13463;SDS011;6804;48.774;9.174;2022-08-25T15:14:14;3.85;;;2.60;;
13463;SDS011;6804;48.774;9.174;2022-08-25T15:16:47;3.15;;;2.80;;
13463;SDS011;6804;48.774;9.174;2022-08-25T15:19:19;5.05;;;3.08;;
13463;SDS011;6804;48.774;9.174;2022-08-25T15:21:50;4.18;;;3.38;;
13463;SDS011;6804;48.774;9.174;2022-08-25T15:24:20;4.15;;;2.92;;
13463;SDS011;6804;48.774;9.174;2022-08-25T15:26:52;3.53;;;3.10;;
13463;SDS011;6804;48.774;9.174;2022-08-25T15:29:26;3.17;;;2.88;;
13463;SDS011;6804;48.774;9.174;2022-08-25T15:31:56;3.53;;;2.85;;
13463;SDS011;6804;48.774;9.174;2022-08-25T15:34:27;3.05;;;2.85;;
13463;SDS011;6804;48.774;9.174;2022-08-25T15:36:57;3.50;;;3.10;;
13463;SDS011;6804;48.774;9.174;2022-08-25T15:39:42;3.28;;;2.90;;
13463;SDS011;6804;48.774;9.174;2022-08-25T15:42:12;3.30;;;3.00;;
13463;SDS011;6804;48.774;9.174;2022-08-25T15:44:41;3.20;;;2.90;;
13463;SDS011;6804;48.774;9.174;2022-08-25T15:47:10;4.18;;;3.22;;
13463;SDS011;6804;48.774;9.174;2022-08-25T15:49:42;3.80;;;3.03;;
13463;SDS011;6804;48.774;9.174;2022-08-25T15:52:13;3.30;;;2.90;;
13463;SDS011;6804;48.774;9.174;2022-08-25T15:54:41;2.72;;;2.50;;
13463;SDS011;6804;48.774;9.174;2022-08-25T15:57:14;3.00;;;2.67;;
13463;SDS011;6804;48.774;9.174;2022-08-25T15:59:43;3.47;;;2.78;;